sensor_id;sensor_type;location;lat;lon;timestamp;pressure;altitude;pressure_sealevel;temperature;humidity
57068;BME280;43391;47.448;18.904;2023-05-31T00:01:11;99958.91;;;15.12;100.00
57068;BME280;43391;47.448;18.904;2023-05-31T00:03:38;99946.06;;;15.09;100.00
57068;BME280;43391;47.448;18.904;2023-05-31T00:06:06;99960.03;;;15.08;100.00
57068;BME280;43391;47.448;18.904;2023-05-31T00:08:32;99950.03;;;15.15;100.00
57068;BME280;43391;47.448;18.904;2023-05-31T00:10:57;99942.09;;;15.17;100.00
57068;BME280;43391;47.448;18.904;2023-05-31T00:13:23;99952.94;;;15.10;100.00
57068;BME280;43391;47.448;18.904;2023-05-31T00:15:48;99946.88;;;15.10;100.00
57068;BME280;43391;47.448;18.904;2023-05-31T00:18:14;99942.19;;;15.15;100.00
57068;BME280;43391;47.448;18.904;2023-05-31T00:20:39;99944.34;;;15.08;100.00
57068;BME280;43391;47.448;18.904;2023-05-31T00:23:04;99934.34;;;15.15;100.00
57068;BME280;43391;47.448;18.904;2023-05-31T00:25:30;99936.00;;;15.16;100.00
57068;BME280;43391;47.448;18.904;2023-05-31T00:27:55;99943.75;;;15.18;100.00
57068;BME280;43391;47.448;18.904;2023-05-31T00:30:22;99940.66;;;15.25;100.00
57068;BME280;43391;47.448;18.904;2023-05-31T00:32:47;99942.47;;;15.38;100.00
57068;BME280;43391;47.448;18.904;2023-05-31T00:35:13;99944.56;;;15.46;100.00
57068;BME280;43391;47.448;18.904;2023-05-31T00:37:38;99939.34;;;15.46;100.00
57068;BME280;43391;47.448;18.904;2023-05-31T00:40:04;99948.75;;;15.48;100.00
57068;BME280;43391;47.448;18.904;2023-05-31T00:42:33;99946.16;;;15.48;100.00
57068;BME280;43391;47.448;18.904;2023-05-31T00:44:58;99954.13;;;15.47;100.00
57068;BME280;43391;47.448;18.904;2023-05-31T00:47:24;99941.41;;;15.40;100.00
57068;BME280;43391;47.448;18.904;2023-05-31T00:49:51;99946.34;;;15.32;100.00
57068;BME280;43391;47.448;18.904;2023-05-31T00:52:17;99938.88;;;15.26;100.00
57068;BME280;43391;47.448;18.904;2023-05-31T00:54:43;99943.25;;;15.25;100.00
57068;BME280;43391;47.448;18.904;2023-05-31T00:57:08;99932.72;;;15.27;100.00
57068;BME280;43391;47.448;18.904;2023-05-31T00:59:34;99932.91;;;15.24;100.00
57068;BME280;43391;47.448;18.904;2023-05-31T01:02:02;99938.13;;;15.24;100.00
57068;BME280;43391;47.448;18.904;2023-05-31T01:04:32;99937.19;;;15.25;100.00
57068;BME280;43391;47.448;18.904;2023-05-31T01:06:59;99936.38;;;15.24;100.00
57068;BME280;43391;47.448;18.904;2023-05-31T01:09:29;99935.09;;;15.17;100.00
57068;BME280;43391;47.448;18.904;2023-05-31T01:17:37;99935.59;;;15.22;100.00
57068;BME280;43391;47.448;18.904;2023-05-31T01:20:06;99935.72;;;15.21;100.00
57068;BME280;43391;47.448;18.904;2023-05-31T01:22:55;99932.16;;;15.22;100.00
57068;BME280;43391;47.448;18.904;2023-05-31T01:28:09;99937.09;;;15.26;100.00
57068;BME280;43391;47.448;18.904;2023-05-31T01:30:38;99932.25;;;15.20;100.00
57068;BME280;43391;47.448;18.904;2023-05-31T01:33:08;99933.00;;;15.22;100.00
57068;BME280;43391;47.448;18.904;2023-05-31T01:35:34;99928.38;;;15.13;100.00
57068;BME280;43391;47.448;18.904;2023-05-31T01:37:59;99926.03;;;15.08;100.00
57068;BME280;43391;47.448;18.904;2023-05-31T01:40:25;99932.44;;;15.04;100.00
57068;BME280;43391;47.448;18.904;2023-05-31T01:42:51;99928.13;;;15.03;100.00
57068;BME280;43391;47.448;18.904;2023-05-31T01:45:17;99929.50;;;15.09;100.00
57068;BME280;43391;47.448;18.904;2023-05-31T01:47:44;99938.84;;;15.13;99.88
57068;BME280;43391;47.448;18.904;2023-05-31T01:50:12;99932.06;;;15.23;100.00
57068;BME280;43391;47.448;18.904;2023-05-31T01:52:38;99926.53;;;15.28;100.00
57068;BME280;43391;47.448;18.904;2023-05-31T01:55:03;99923.94;;;15.28;100.00
57068;BME280;43391;47.448;18.904;2023-05-31T01:57:33;99925.69;;;15.27;100.00
57068;BME280;43391;47.448;18.904;2023-05-31T01:59:59;99923.59;;;15.20;100.00
57068;BME280;43391;47.448;18.904;2023-05-31T02:02:27;99928.84;;;15.20;100.00
57068;BME280;43391;47.448;18.904;2023-05-31T02:05:05;99933.00;;;15.22;100.00
57068;BME280;43391;47.448;18.904;2023-05-31T02:07:39;99927.03;;;15.20;100.00
57068;BME280;43391;47.448;18.904;2023-05-31T02:10:06;99931.31;;;15.21;97.53
57068;BME280;43391;47.448;18.904;2023-05-31T02:12:32;99928.84;;;15.33;95.25
57068;BME280;43391;47.448;18.904;2023-05-31T02:14:57;99938.94;;;15.39;96.83
57068;BME280;43391;47.448;18.904;2023-05-31T02:17:23;99935.47;;;15.38;97.02
57068;BME280;43391;47.448;18.904;2023-05-31T02:19:53;99943.22;;;15.40;97.60
57068;BME280;43391;47.448;18.904;2023-05-31T02:22:21;99938.94;;;15.39;100.00
57068;BME280;43391;47.448;18.904;2023-05-31T02:24:47;99938.63;;;15.44;98.00
57068;BME280;43391;47.448;18.904;2023-05-31T02:27:14;99946.00;;;15.37;100.00
57068;BME280;43391;47.448;18.904;2023-05-31T02:29:39;99936.91;;;15.30;97.63
57068;BME280;43391;47.448;18.904;2023-05-31T02:32:05;99941.38;;;15.27;95.60
57068;BME280;43391;47.448;18.904;2023-05-31T02:34:31;99946.34;;;15.32;94.96
57068;BME280;43391;47.448;18.904;2023-05-31T02:36:57;99943.22;;;15.40;93.95
57068;BME280;43391;47.448;18.904;2023-05-31T02:39:23;99948.97;;;15.45;97.95
57068;BME280;43391;47.448;18.904;2023-05-31T02:41:49;99946.97;;;15.36;100.00
57068;BME280;43391;47.448;18.904;2023-05-31T02:44:14;99948.84;;;15.34;100.00
57068;BME280;43391;47.448;18.904;2023-05-31T02:46:40;99951.66;;;15.31;99.66
57068;BME280;43391;47.448;18.904;2023-05-31T02:49:05;99955.41;;;15.26;100.00
57068;BME280;43391;47.448;18.904;2023-05-31T02:51:32;99952.88;;;15.25;100.00
57068;BME280;43391;47.448;18.904;2023-05-31T02:53:57;99961.03;;;15.20;100.00
57068;BME280;43391;47.448;18.904;2023-05-31T02:56:22;99952.38;;;15.20;98.31
57068;BME280;43391;47.448;18.904;2023-05-31T02:58:48;99964.28;;;15.24;97.18
57068;BME280;43391;47.448;18.904;2023-05-31T03:01:13;99961.66;;;15.24;98.70
57068;BME280;43391;47.448;18.904;2023-05-31T03:03:39;99961.13;;;15.19;95.63
57068;BME280;43391;47.448;18.904;2023-05-31T03:06:05;99961.88;;;15.21;95.19
57068;BME280;43391;47.448;18.904;2023-05-31T03:08:30;99962.13;;;15.31;97.89
57068;BME280;43391;47.448;18.904;2023-05-31T03:10:56;99964.91;;;15.27;99.27
57068;BME280;43391;47.448;18.904;2023-05-31T03:13:21;99956.34;;;15.25;100.00
57068;BME280;43391;47.448;18.904;2023-05-31T03:15:47;99969.50;;;15.24;100.00
57068;BME280;43391;47.448;18.904;2023-05-31T03:18:12;99967.19;;;15.19;100.00
57068;BME280;43391;47.448;18.904;2023-05-31T03:20:38;99969.28;;;15.14;98.03
57068;BME280;43391;47.448;18.904;2023-05-31T03:23:03;99968.16;;;15.18;100.00
57068;BME280;43391;47.448;18.904;2023-05-31T03:25:29;99967.28;;;15.18;98.07
57068;BME280;43391;47.448;18.904;2023-05-31T03:27:54;99974.09;;;15.20;99.16
57068;BME280;43391;47.448;18.904;2023-05-31T03:30:22;99970.66;;;15.20;97.25
57068;BME280;43391;47.448;18.904;2023-05-31T03:32:48;99975.78;;;15.21;99.09
57068;BME280;43391;47.448;18.904;2023-05-31T03:35:13;99977.34;;;15.24;99.08
57068;BME280;43391;47.448;18.904;2023-05-31T03:37:38;99976.72;;;15.20;100.00
57068;BME280;43391;47.448;18.904;2023-05-31T03:40:04;99981.13;;;15.20;100.00
57068;BME280;43391;47.448;18.904;2023-05-31T03:42:30;99976.00;;;15.18;98.43
57068;BME280;43391;47.448;18.904;2023-05-31T03:44:56;99976.72;;;15.20;99.42
57068;BME280;43391;47.448;18.904;2023-05-31T03:47:22;99981.00;;;15.21;98.30
57068;BME280;43391;47.448;18.904;2023-05-31T03:49:47;99988.13;;;15.19;100.00
57068;BME280;43391;47.448;18.904;2023-05-31T03:52:12;99978.50;;;15.20;100.00
57068;BME280;43391;47.448;18.904;2023-05-31T03:54:39;99989.88;;;15.19;100.00
57068;BME280;43391;47.448;18.904;2023-05-31T03:57:05;99992.81;;;15.14;100.00
57068;BME280;43391;47.448;18.904;2023-05-31T03:59:30;99995.13;;;15.19;99.86
57068;BME280;43391;47.448;18.904;2023-05-31T04:01:56;99995.03;;;15.20;100.00
57068;BME280;43391;47.448;18.904;2023-05-31T04:04:22;99993.25;;;15.21;100.00
57068;BME280;43391;47.448;18.904;2023-05-31T04:06:47;100003.59;;;15.22;100.00
57068;BME280;43391;47.448;18.904;2023-05-31T04:09:12;100002.56;;;15.25;100.00
57068;BME280;43391;47.448;18.904;2023-05-31T04:11:38;99999.56;;;15.31;97.07
57068;BME280;43391;47.448;18.904;2023-05-31T04:14:03;100005.34;;;15.36;99.91
57068;BME280;43391;47.448;18.904;2023-05-31T04:16:29;100001.69;;;15.39;99.81
57068;BME280;43391;47.448;18.904;2023-05-31T04:18:54;100001.56;;;15.40;97.99
57068;BME280;43391;47.448;18.904;2023-05-31T04:21:20;100005.41;;;15.49;96.79
57068;BME280;43391;47.448;18.904;2023-05-31T04:23:46;99994.00;;;15.50;94.18
57068;BME280;43391;47.448;18.904;2023-05-31T04:26:11;100008.97;;;15.61;94.18
57068;BME280;43391;47.448;18.904;2023-05-31T04:28:44;100007.44;;;15.72;95.68
57068;BME280;43391;47.448;18.904;2023-05-31T04:31:10;100008.72;;;15.79;91.67
57068;BME280;43391;47.448;18.904;2023-05-31T04:33:37;100012.41;;;15.89;91.91
57068;BME280;43391;47.448;18.904;2023-05-31T04:36:03;100012.19;;;15.92;93.21
57068;BME280;43391;47.448;18.904;2023-05-31T04:38:30;100006.56;;;15.99;89.03
57068;BME280;43391;47.448;18.904;2023-05-31T04:40:58;100004.91;;;16.11;89.94
57068;BME280;43391;47.448;18.904;2023-05-31T04:43:25;100008.69;;;16.19;91.48
57068;BME280;43391;47.448;18.904;2023-05-31T04:45:51;100008.16;;;16.27;91.50
57068;BME280;43391;47.448;18.904;2023-05-31T04:48:18;100013.41;;;16.27;92.54
57068;BME280;43391;47.448;18.904;2023-05-31T04:50:44;100013.94;;;16.32;90.93
57068;BME280;43391;47.448;18.904;2023-05-31T04:53:11;100016.56;;;16.32;89.07
57068;BME280;43391;47.448;18.904;2023-05-31T04:55:37;100018.78;;;16.39;86.11
57068;BME280;43391;47.448;18.904;2023-05-31T04:58:03;100026.00;;;16.48;89.52
57068;BME280;43391;47.448;18.904;2023-05-31T05:00:28;100018.97;;;16.49;89.94
57068;BME280;43391;47.448;18.904;2023-05-31T05:02:54;100023.78;;;16.55;90.96
57068;BME280;43391;47.448;18.904;2023-05-31T05:05:20;100021.06;;;16.56;83.96
57068;BME280;43391;47.448;18.904;2023-05-31T05:07:45;100018.00;;;16.63;86.42
57068;BME280;43391;47.448;18.904;2023-05-31T05:10:10;100016.84;;;16.80;86.76
57068;BME280;43391;47.448;18.904;2023-05-31T05:12:36;100018.69;;;16.91;90.92
57068;BME280;43391;47.448;18.904;2023-05-31T05:15:01;100028.78;;;16.97;90.86
57068;BME280;43391;47.448;18.904;2023-05-31T05:17:27;100019.53;;;17.04;85.08
57068;BME280;43391;47.448;18.904;2023-05-31T05:19:52;100032.72;;;17.16;82.71
57068;BME280;43391;47.448;18.904;2023-05-31T05:22:19;100027.53;;;17.27;81.50
57068;BME280;43391;47.448;18.904;2023-05-31T05:24:45;100024.31;;;17.23;80.16
57068;BME280;43391;47.448;18.904;2023-05-31T05:27:11;100018.56;;;17.43;85.61
57068;BME280;43391;47.448;18.904;2023-05-31T05:29:37;100026.13;;;17.47;84.87
57068;BME280;43391;47.448;18.904;2023-05-31T05:32:02;100029.75;;;17.58;83.18
57068;BME280;43391;47.448;18.904;2023-05-31T05:34:28;100022.13;;;17.66;81.25
57068;BME280;43391;47.448;18.904;2023-05-31T05:36:53;100023.03;;;17.78;81.68
57068;BME280;43391;47.448;18.904;2023-05-31T05:39:19;100030.31;;;17.86;83.85
57068;BME280;43391;47.448;18.904;2023-05-31T05:41:44;100031.19;;;17.86;82.29
57068;BME280;43391;47.448;18.904;2023-05-31T05:44:09;100039.19;;;17.96;84.52
57068;BME280;43391;47.448;18.904;2023-05-31T05:46:35;100040.53;;;18.02;80.99
57068;BME280;43391;47.448;18.904;2023-05-31T05:49:00;100038.50;;;18.05;81.23
57068;BME280;43391;47.448;18.904;2023-05-31T05:51:26;100039.75;;;18.13;81.73
57068;BME280;43391;47.448;18.904;2023-05-31T05:53:52;100031.53;;;18.29;79.21
57068;BME280;43391;47.448;18.904;2023-05-31T05:56:17;100039.44;;;18.52;79.05
57068;BME280;43391;47.448;18.904;2023-05-31T05:58:45;100044.13;;;18.71;76.64
57068;BME280;43391;47.448;18.904;2023-05-31T06:01:14;100038.03;;;18.82;70.25
57068;BME280;43391;47.448;18.904;2023-05-31T06:03:48;100042.78;;;19.11;68.12
57068;BME280;43391;47.448;18.904;2023-05-31T06:06:14;100049.44;;;19.38;68.92
57068;BME280;43391;47.448;18.904;2023-05-31T06:08:40;100054.19;;;19.56;66.11
57068;BME280;43391;47.448;18.904;2023-05-31T06:11:05;100052.66;;;19.74;68.23
57068;BME280;43391;47.448;18.904;2023-05-31T06:13:31;100049.97;;;19.86;71.02
57068;BME280;43391;47.448;18.904;2023-05-31T06:15:57;100046.06;;;19.80;71.61
57068;BME280;43391;47.448;18.904;2023-05-31T06:18:22;100052.59;;;19.86;69.45
57068;BME280;43391;47.448;18.904;2023-05-31T06:20:48;100045.44;;;19.88;71.31
57068;BME280;43391;47.448;18.904;2023-05-31T06:23:13;100054.22;;;19.77;69.26
57068;BME280;43391;47.448;18.904;2023-05-31T06:25:38;100059.56;;;19.87;68.38
57068;BME280;43391;47.448;18.904;2023-05-31T06:28:04;100057.13;;;19.95;64.88
57068;BME280;43391;47.448;18.904;2023-05-31T06:30:29;100058.78;;;19.96;73.55
57068;BME280;43391;47.448;18.904;2023-05-31T06:32:55;100061.66;;;20.04;70.86
57068;BME280;43391;47.448;18.904;2023-05-31T06:35:20;100058.06;;;20.27;70.84
57068;BME280;43391;47.448;18.904;2023-05-31T06:37:48;100059.47;;;20.62;66.32
57068;BME280;43391;47.448;18.904;2023-05-31T06:40:13;100057.72;;;20.94;66.86
57068;BME280;43391;47.448;18.904;2023-05-31T06:42:38;100064.03;;;21.22;68.42
57068;BME280;43391;47.448;18.904;2023-05-31T06:45:04;100063.47;;;21.19;67.80
57068;BME280;43391;47.448;18.904;2023-05-31T06:47:30;100063.47;;;21.19;64.96
57068;BME280;43391;47.448;18.904;2023-05-31T06:49:55;100057.09;;;21.31;67.21
57068;BME280;43391;47.448;18.904;2023-05-31T06:52:20;100053.34;;;21.44;65.06
57068;BME280;43391;47.448;18.904;2023-05-31T06:54:46;100063.53;;;21.58;64.21
57068;BME280;43391;47.448;18.904;2023-05-31T06:57:11;100062.13;;;21.54;64.03
57068;BME280;43391;47.448;18.904;2023-05-31T06:59:36;100061.31;;;21.54;64.21
57068;BME280;43391;47.448;18.904;2023-05-31T07:02:02;100064.50;;;21.57;65.46
57068;BME280;43391;47.448;18.904;2023-05-31T07:04:27;100069.78;;;21.67;65.94
57068;BME280;43391;47.448;18.904;2023-05-31T07:06:53;100075.41;;;21.84;64.41
57068;BME280;43391;47.448;18.904;2023-05-31T07:09:18;100078.56;;;21.97;63.85
57068;BME280;43391;47.448;18.904;2023-05-31T07:11:44;100084.69;;;22.08;60.65
57068;BME280;43391;47.448;18.904;2023-05-31T07:14:09;100076.91;;;22.16;54.49
57068;BME280;43391;47.448;18.904;2023-05-31T07:16:35;100075.09;;;22.07;60.20
57068;BME280;43391;47.448;18.904;2023-05-31T07:19:02;100081.19;;;22.07;63.95
57068;BME280;43391;47.448;18.904;2023-05-31T07:21:27;100084.28;;;22.02;63.35
57068;BME280;43391;47.448;18.904;2023-05-31T07:23:54;100078.44;;;21.99;59.14
57068;BME280;43391;47.448;18.904;2023-05-31T07:26:20;100075.38;;;21.94;55.24
57068;BME280;43391;47.448;18.904;2023-05-31T07:28:46;100074.53;;;21.93;58.01
57068;BME280;43391;47.448;18.904;2023-05-31T07:31:14;100083.47;;;22.02;57.22
57068;BME280;43391;47.448;18.904;2023-05-31T07:33:43;100076.66;;;21.99;58.35
57068;BME280;43391;47.448;18.904;2023-05-31T07:36:08;100072.75;;;21.94;57.07
57068;BME280;43391;47.448;18.904;2023-05-31T07:38:34;100078.28;;;21.90;56.75
57068;BME280;43391;47.448;18.904;2023-05-31T07:41:00;100084.56;;;21.99;60.69
57068;BME280;43391;47.448;18.904;2023-05-31T07:43:26;100080.94;;;22.00;61.48
57068;BME280;43391;47.448;18.904;2023-05-31T07:45:51;100084.81;;;22.06;58.03
57068;BME280;43391;47.448;18.904;2023-05-31T07:48:19;100075.09;;;22.07;55.54
57068;BME280;43391;47.448;18.904;2023-05-31T07:50:46;100079.41;;;22.08;62.76
57068;BME280;43391;47.448;18.904;2023-05-31T07:53:12;100075.91;;;22.17;60.88
57068;BME280;43391;47.448;18.904;2023-05-31T07:55:37;100079.66;;;22.34;61.04
57068;BME280;43391;47.448;18.904;2023-05-31T07:58:03;100076.38;;;22.50;60.88
57068;BME280;43391;47.448;18.904;2023-05-31T08:00:28;100073.06;;;22.58;63.71
57068;BME280;43391;47.448;18.904;2023-05-31T08:02:54;100072.00;;;22.79;61.92
57068;BME280;43391;47.448;18.904;2023-05-31T08:05:19;100084.38;;;22.88;60.79
57068;BME280;43391;47.448;18.904;2023-05-31T08:07:45;100070.47;;;22.76;58.95
57068;BME280;43391;47.448;18.904;2023-05-31T08:10:12;100079.13;;;22.78;60.52
57068;BME280;43391;47.448;18.904;2023-05-31T08:12:37;100077.69;;;22.84;57.46
57068;BME280;43391;47.448;18.904;2023-05-31T08:15:03;100084.03;;;23.01;56.90
57068;BME280;43391;47.448;18.904;2023-05-31T08:17:28;100079.06;;;23.16;51.82
57068;BME280;43391;47.448;18.904;2023-05-31T08:19:54;100080.69;;;23.27;52.35
57068;BME280;43391;47.448;18.904;2023-05-31T08:22:19;100079.81;;;23.37;56.49
57068;BME280;43391;47.448;18.904;2023-05-31T08:24:45;100073.47;;;23.47;55.34
57068;BME280;43391;47.448;18.904;2023-05-31T08:27:11;100079.84;;;23.55;52.12
57068;BME280;43391;47.448;18.904;2023-05-31T08:29:36;100076.41;;;23.62;51.47
57068;BME280;43391;47.448;18.904;2023-05-31T08:32:02;100075.50;;;23.54;50.74
57068;BME280;43391;47.448;18.904;2023-05-31T08:34:27;100079.91;;;23.63;53.00
57068;BME280;43391;47.448;18.904;2023-05-31T08:36:52;100084.16;;;23.74;50.09
57068;BME280;43391;47.448;18.904;2023-05-31T08:39:18;100088.47;;;23.75;47.96
57068;BME280;43391;47.448;18.904;2023-05-31T08:41:57;100088.31;;;23.77;48.69
57068;BME280;43391;47.448;18.904;2023-05-31T08:44:23;100081.78;;;23.89;50.67
57068;BME280;43391;47.448;18.904;2023-05-31T08:46:49;100080.53;;;24.01;50.70
57068;BME280;43391;47.448;18.904;2023-05-31T08:49:19;100075.09;;;24.21;50.80
57068;BME280;43391;47.448;18.904;2023-05-31T08:51:45;100080.50;;;24.38;49.53
57068;BME280;43391;47.448;18.904;2023-05-31T08:54:13;100077.13;;;24.54;50.47
57068;BME280;43391;47.448;18.904;2023-05-31T08:56:39;100079.00;;;24.62;50.16
57068;BME280;43391;47.448;18.904;2023-05-31T08:59:09;100071.38;;;24.67;48.50
57068;BME280;43391;47.448;18.904;2023-05-31T09:01:38;100077.06;;;24.72;47.84
57068;BME280;43391;47.448;18.904;2023-05-31T09:04:05;100073.56;;;24.72;48.22
57068;BME280;43391;47.448;18.904;2023-05-31T09:06:33;100064.38;;;24.58;49.20
57068;BME280;43391;47.448;18.904;2023-05-31T09:09:00;100068.22;;;24.63;50.52
57068;BME280;43391;47.448;18.904;2023-05-31T09:11:25;100062.94;;;24.72;46.85
57068;BME280;43391;47.448;18.904;2023-05-31T09:13:52;100062.47;;;24.76;49.36
57068;BME280;43391;47.448;18.904;2023-05-31T09:16:17;100070.25;;;24.70;45.25
57068;BME280;43391;47.448;18.904;2023-05-31T09:18:43;100075.69;;;24.68;45.47
57068;BME280;43391;47.448;18.904;2023-05-31T09:21:11;100059.47;;;24.71;48.40
57068;BME280;43391;47.448;18.904;2023-05-31T09:23:37;100075.22;;;24.73;47.01
57068;BME280;43391;47.448;18.904;2023-05-31T09:26:06;100071.50;;;24.84;46.33
57068;BME280;43391;47.448;18.904;2023-05-31T09:28:32;100067.84;;;24.85;46.54
57068;BME280;43391;47.448;18.904;2023-05-31T09:33:45;100060.78;;;24.75;47.11
57068;BME280;43391;47.448;18.904;2023-05-31T09:36:12;100057.13;;;24.68;45.40
57068;BME280;43391;47.448;18.904;2023-05-31T09:38:40;100057.13;;;24.68;45.64
57068;BME280;43391;47.448;18.904;2023-05-31T09:41:17;100060.88;;;24.84;49.27
57068;BME280;43391;47.448;18.904;2023-05-31T09:43:45;100065.72;;;24.97;53.48
57068;BME280;43391;47.448;18.904;2023-05-31T09:46:15;100062.22;;;24.88;49.13
57068;BME280;43391;47.448;18.904;2023-05-31T09:48:42;100061.25;;;24.97;51.04
57068;BME280;43391;47.448;18.904;2023-05-31T09:51:12;100063.59;;;25.00;45.65
57068;BME280;43391;47.448;18.904;2023-05-31T09:53:39;100062.06;;;24.98;46.33
57068;BME280;43391;47.448;18.904;2023-05-31T09:56:26;100063.97;;;25.14;47.76
57068;BME280;43391;47.448;18.904;2023-05-31T09:58:55;100062.13;;;25.14;48.60
57068;BME280;43391;47.448;18.904;2023-05-31T10:01:22;100058.84;;;25.29;47.63
57068;BME280;43391;47.448;18.904;2023-05-31T10:03:49;100058.03;;;25.37;51.57
57068;BME280;43391;47.448;18.904;2023-05-31T10:06:19;100060.53;;;25.46;49.80
57068;BME280;43391;47.448;18.904;2023-05-31T10:08:45;100056.91;;;25.56;47.17
57068;BME280;43391;47.448;18.904;2023-05-31T10:11:15;100046.66;;;25.69;45.01
57068;BME280;43391;47.448;18.904;2023-05-31T10:13:43;100049.47;;;25.68;48.51
57068;BME280;43391;47.448;18.904;2023-05-31T10:16:11;100054.94;;;25.66;48.12
57068;BME280;43391;47.448;18.904;2023-05-31T10:18:38;100050.63;;;25.73;46.92
57068;BME280;43391;47.448;18.904;2023-05-31T10:21:10;100059.28;;;25.84;46.07
57068;BME280;43391;47.448;18.904;2023-05-31T10:23:43;100053.44;;;25.80;46.06
57068;BME280;43391;47.448;18.904;2023-05-31T10:26:17;100053.63;;;25.79;48.67
57068;BME280;43391;47.448;18.904;2023-05-31T10:29:10;100042.81;;;25.89;47.69
57068;BME280;43391;47.448;18.904;2023-05-31T10:31:41;100043.81;;;25.79;48.29
57068;BME280;43391;47.448;18.904;2023-05-31T10:34:21;100048.81;;;25.82;48.89
57068;BME280;43391;47.448;18.904;2023-05-31T10:36:49;100049.13;;;25.87;44.27
57068;BME280;43391;47.448;18.904;2023-05-31T10:39:21;100043.31;;;25.92;42.18
57068;BME280;43391;47.448;18.904;2023-05-31T10:41:57;100042.16;;;25.78;41.98
57068;BME280;43391;47.448;18.904;2023-05-31T10:44:30;100032.16;;;25.97;45.89
57068;BME280;43391;47.448;18.904;2023-05-31T10:47:01;100040.28;;;26.12;49.21
57068;BME280;43391;47.448;18.904;2023-05-31T10:49:31;100034.94;;;26.37;49.58
57068;BME280;43391;47.448;18.904;2023-05-31T10:52:04;100040.06;;;26.55;46.37
57068;BME280;43391;47.448;18.904;2023-05-31T10:54:32;100040.38;;;26.60;46.80
57068;BME280;43391;47.448;18.904;2023-05-31T10:56:58;100046.03;;;26.57;45.69
57068;BME280;43391;47.448;18.904;2023-05-31T10:59:25;100040.66;;;26.65;48.56
57068;BME280;43391;47.448;18.904;2023-05-31T11:01:51;100029.66;;;26.69;46.07
57068;BME280;43391;47.448;18.904;2023-05-31T11:04:24;100035.84;;;26.61;45.09
57068;BME280;43391;47.448;18.904;2023-05-31T11:06:54;100027.84;;;26.04;44.23
57068;BME280;43391;47.448;18.904;2023-05-31T11:09:20;100028.53;;;25.56;46.84
57068;BME280;43391;47.448;18.904;2023-05-31T11:11:48;100026.22;;;25.62;43.89
57068;BME280;43391;47.448;18.904;2023-05-31T11:19:20;100013.78;;;26.44;43.65
57068;BME280;43391;47.448;18.904;2023-05-31T11:21:47;100015.88;;;26.65;47.11
57068;BME280;43391;47.448;18.904;2023-05-31T11:24:55;100016.84;;;26.72;45.58
57068;BME280;43391;47.448;18.904;2023-05-31T11:27:37;100012.44;;;26.56;43.66
57068;BME280;43391;47.448;18.904;2023-05-31T11:30:06;100009.19;;;26.29;45.23
57068;BME280;43391;47.448;18.904;2023-05-31T11:35:05;100004.28;;;26.58;46.33
57068;BME280;43391;47.448;18.904;2023-05-31T11:37:37;100003.69;;;26.22;45.36
57068;BME280;43391;47.448;18.904;2023-05-31T11:40:05;100003.44;;;25.76;43.27
57068;BME280;43391;47.448;18.904;2023-05-31T11:42:33;100000.75;;;25.34;44.10
57068;BME280;43391;47.448;18.904;2023-05-31T11:45:03;99997.38;;;25.07;44.34
57068;BME280;43391;47.448;18.904;2023-05-31T11:50:02;99997.53;;;24.62;50.71
57068;BME280;43391;47.448;18.904;2023-05-31T11:52:28;99998.84;;;24.50;48.89
57068;BME280;43391;47.448;18.904;2023-05-31T11:54:54;99996.38;;;24.57;47.19
57068;BME280;43391;47.448;18.904;2023-05-31T11:57:21;99997.81;;;24.86;50.06
57068;BME280;43391;47.448;18.904;2023-05-31T11:59:47;99999.03;;;25.08;48.49
57068;BME280;43391;47.448;18.904;2023-05-31T12:02:13;99992.75;;;25.01;46.84
57068;BME280;43391;47.448;18.904;2023-05-31T12:04:38;99997.31;;;24.82;50.45
57068;BME280;43391;47.448;18.904;2023-05-31T12:07:06;99983.91;;;24.84;46.90
57068;BME280;43391;47.448;18.904;2023-05-31T12:09:33;99987.41;;;24.92;46.47
57068;BME280;43391;47.448;18.904;2023-05-31T12:12:05;99988.66;;;24.80;50.65
57068;BME280;43391;47.448;18.904;2023-05-31T12:14:32;99990.63;;;24.70;49.06
57068;BME280;43391;47.448;18.904;2023-05-31T12:17:01;99985.16;;;24.71;50.03
57068;BME280;43391;47.448;18.904;2023-05-31T12:19:30;99980.47;;;24.65;53.01
57068;BME280;43391;47.448;18.904;2023-05-31T12:21:55;99982.16;;;24.74;52.63
57068;BME280;43391;47.448;18.904;2023-05-31T12:24:21;99981.25;;;24.84;52.48
57068;BME280;43391;47.448;18.904;2023-05-31T12:26:47;99980.03;;;24.78;46.88
57068;BME280;43391;47.448;18.904;2023-05-31T12:29:16;99984.13;;;24.64;48.65
57068;BME280;43391;47.448;18.904;2023-05-31T12:31:42;99973.44;;;24.47;47.56
57068;BME280;43391;47.448;18.904;2023-05-31T12:34:09;99978.34;;;24.34;48.79
57068;BME280;43391;47.448;18.904;2023-05-31T12:36:47;99978.47;;;24.24;50.46
57068;BME280;43391;47.448;18.904;2023-05-31T12:39:17;99976.75;;;24.14;53.06
57068;BME280;43391;47.448;18.904;2023-05-31T12:41:47;99978.16;;;24.00;46.55
57068;BME280;43391;47.448;18.904;2023-05-31T12:44:15;99976.28;;;23.93;48.74
57068;BME280;43391;47.448;18.904;2023-05-31T12:46:46;99972.44;;;23.87;48.28
57068;BME280;43391;47.448;18.904;2023-05-31T12:49:19;99967.97;;;23.87;49.91
57068;BME280;43391;47.448;18.904;2023-05-31T12:51:46;99970.16;;;23.92;48.07
57068;BME280;43391;47.448;18.904;2023-05-31T12:54:17;99968.31;;;23.93;50.22
57068;BME280;43391;47.448;18.904;2023-05-31T12:56:43;99957.38;;;23.87;49.06
57068;BME280;43391;47.448;18.904;2023-05-31T12:59:08;99958.41;;;23.95;47.83
57068;BME280;43391;47.448;18.904;2023-05-31T13:01:36;99952.91;;;24.14;46.26
57068;BME280;43391;47.448;18.904;2023-05-31T13:04:04;99950.78;;;24.53;45.75